Queen Of Burnaby — VCVV — position and weather

sailwx.info

Track history (hours):
 
Tides and Currents Weather Stations Pressure Air Temp Water Temp Dewpoint Dewpoint Depression Visibility Wind Speed Wind Dir Waves Ship Positions

Queen Of Burnaby

Last reported at 2015-Feb-27 02:13 UTC. Time now 2015-Feb-27 04:03 UTC.
Position N 49°47' W 124°49'.

Length 130 m; draft 4 m.

MMSI: 316001246.

Date/timePositionNaut miles runAvg speedWind from/ knotsBaromVisibWave heightAir tempDewpointWater temp
2015-Feb-27 02:13N 49°47' W 124°49'8 4.5
2015-Feb-27 00:22N 49°49' W 124°37'1012.7
2015-Feb-26 23:33N 49°46' W 124°52'2 0.5
2015-Feb-26 18:32N 49°47' W 124°49'8 2.6
2015-Feb-26 15:27N 49°49' W 124°37'6 0.5
2015-Feb-26 03:31N 49°46' W 124°45'10 1.2
2015-Feb-25 19:27N 49°50' W 124°32'1011.5
2015-Feb-25 18:33N 49°47' W 124°47'7 2.3
2015-Feb-25 15:28N 49°49' W 124°37'1 0.1
2015-Feb-25 04:20N 49°50' W 124°36'1 0.2
2015-Feb-25 00:22N 49°49' W 124°37'1112.6
2015-Feb-24 23:32N 49°45' W 124°52'14 3.4
2015-Feb-24 19:28N 49°50' W 124°32'1111.7
2015-Feb-24 18:33N 49°47' W 124°48'1 0.8
2015-Feb-24 17:07N 49°46' W 124°49'9 5.9
2015-Feb-24 15:33N 49°50' W 124°36'0 0.0
2015-Feb-24 04:15N 49°50' W 124°36'1115.1
2015-Feb-24 03:31N 49°45' W 124°52'13 4.2
2015-Feb-24 00:30N 49°50' W 124°33'0 0.1
2015-Feb-23 19:21N 49°50' W 124°33'1012.5
2015-Feb-23 18:33N 49°47' W 124°47'0 0.3
2015-Feb-23 17:04N 49°47' W 124°48'8 5.3
2015-Feb-23 15:32N 49°50' W 124°36'2 0.2
2015-Feb-23 04:22N 49°50' W 124°33'1214.8
2015-Feb-23 03:32N 49°46' W 124°51'1 0.5
2015-Feb-23 02:23N 49°46' W 124°51'12 6.6
2015-Feb-23 00:30N 49°50' W 124°33'3 0.6
2015-Feb-22 19:03N 49°49' W 124°38'713.3
2015-Feb-22 18:33N 49°47' W 124°47'10 4.4
2015-Feb-22 16:09N 49°50' W 124°32'2 3.4
2015-Feb-22 15:32N 49°50' W 124°35'2 0.1
2015-Feb-21 19:24N 49°50' W 124°32'1113.2
2015-Feb-21 18:33N 49°46' W 124°48'8 2.7
2015-Feb-21 15:29N 49°49' W 124°36'2 0.2
2015-Feb-21 04:21N 49°50' W 124°33'1315.6
2015-Feb-21 03:32N 49°46' W 124°52'13 4.1
2015-Feb-21 00:25N 49°50' W 124°33'1315.1
2015-Feb-20 23:33N 49°45' W 124°52'9 2.8
2015-Feb-20 20:16N 49°48' W 124°38'5 5.7
2015-Feb-20 19:28N 49°50' W 124°32'1112.0
2015-Feb-20 18:33N 49°46' W 124°48'7 2.4
2015-Feb-20 15:26N 49°49' W 124°37'0 0.0
2015-Feb-20 04:17N 49°49' W 124°37'1115.5
2015-Feb-20 03:33N 49°45' W 124°53'14 4.6
2015-Feb-20 00:27N 49°50' W 124°32'1314.8
2015-Feb-19 23:33N 49°46' W 124°51'13 3.4
2015-Feb-19 19:33N 49°50' W 124°32'1110.8
2015-Feb-19 18:33N 49°46' W 124°48'8 2.4
2015-Feb-19 15:28N 49°49' W 124°37'2 0.2
2015-Feb-19 04:08N 49°50' W 124°33'814.0
2015-Feb-19 03:33N 49°47' W 124°45'9 1.1
2015-Feb-18 19:25N 49°50' W 124°32'1011.0
2015-Feb-18 18:31N 49°47' W 124°46'10 4.3
2015-Feb-18 16:14N 49°50' W 124°32'3 4.2
2015-Feb-18 15:32N 49°50' W 124°36'1 0.1
2015-Feb-18 04:11N 49°49' W 124°38'1 0.2
2015-Feb-18 00:24N 49°49' W 124°37'1212.5
2015-Feb-17 23:28N 49°45' W 124°54'15 3.8
2015-Feb-17 19:29N 49°50' W 124°32'5 1.6
2015-Feb-17 16:33N 49°48' W 124°39'2 1.6
2015-Feb-17 15:30N 49°49' W 124°36'1 0.1
2015-Feb-17 04:10N 49°49' W 124°38'914.8
2015-Feb-17 03:33N 49°46' W 124°51'  
Track history (hours):
 
Tides and Currents Weather Stations Pressure Air Temp Water Temp Dewpoint Dewpoint Depression Visibility Wind Speed Wind Dir Waves Ship Positions

Queen Of Burnaby

Last reported at 2015-Feb-27 02:13 UTC. Time now 2015-Feb-27 04:03 UTC.
Position N 49°47' W 124°49'.

Length 130 m; draft 4 m.

MMSI: 316001246.

Date/timePositionNaut miles runAvg speedWind from/ knotsBaromVisibWave heightAir tempDewpointWater temp
2015-Feb-27 02:13N 49°47' W 124°49'8 4.5
2015-Feb-27 00:22N 49°49' W 124°37'1012.7
2015-Feb-26 23:33N 49°46' W 124°52'2 0.5
2015-Feb-26 18:32N 49°47' W 124°49'8 2.6
2015-Feb-26 15:27N 49°49' W 124°37'6 0.5
2015-Feb-26 03:31N 49°46' W 124°45'10 1.2
2015-Feb-25 19:27N 49°50' W 124°32'1011.5
2015-Feb-25 18:33N 49°47' W 124°47'7 2.3
2015-Feb-25 15:28N 49°49' W 124°37'1 0.1
2015-Feb-25 04:20N 49°50' W 124°36'1 0.2
2015-Feb-25 00:22N 49°49' W 124°37'1112.6
2015-Feb-24 23:32N 49°45' W 124°52'14 3.4
2015-Feb-24 19:28N 49°50' W 124°32'1111.7
2015-Feb-24 18:33N 49°47' W 124°48'1 0.8
2015-Feb-24 17:07N 49°46' W 124°49'9 5.9
2015-Feb-24 15:33N 49°50' W 124°36'0 0.0
2015-Feb-24 04:15N 49°50' W 124°36'1115.1
2015-Feb-24 03:31N 49°45' W 124°52'13 4.2
2015-Feb-24 00:30N 49°50' W 124°33'0 0.1
2015-Feb-23 19:21N 49°50' W 124°33'1012.5
2015-Feb-23 18:33N 49°47' W 124°47'0 0.3
2015-Feb-23 17:04N 49°47' W 124°48'8 5.3
2015-Feb-23 15:32N 49°50' W 124°36'2 0.2
2015-Feb-23 04:22N 49°50' W 124°33'1214.8
2015-Feb-23 03:32N 49°46' W 124°51'1 0.5
2015-Feb-23 02:23N 49°46' W 124°51'12 6.6
2015-Feb-23 00:30N 49°50' W 124°33'3 0.6
2015-Feb-22 19:03N 49°49' W 124°38'713.3
2015-Feb-22 18:33N 49°47' W 124°47'10 4.4
2015-Feb-22 16:09N 49°50' W 124°32'2 3.4
2015-Feb-22 15:32N 49°50' W 124°35'2 0.1
2015-Feb-21 19:24N 49°50' W 124°32'1113.2
2015-Feb-21 18:33N 49°46' W 124°48'8 2.7
2015-Feb-21 15:29N 49°49' W 124°36'2 0.2
2015-Feb-21 04:21N 49°50' W 124°33'1315.6
2015-Feb-21 03:32N 49°46' W 124°52'13 4.1
2015-Feb-21 00:25N 49°50' W 124°33'1315.1
2015-Feb-20 23:33N 49°45' W 124°52'9 2.8
2015-Feb-20 20:16N 49°48' W 124°38'5 5.7
2015-Feb-20 19:28N 49°50' W 124°32'1112.0
2015-Feb-20 18:33N 49°46' W 124°48'7 2.4
2015-Feb-20 15:26N 49°49' W 124°37'0 0.0
2015-Feb-20 04:17N 49°49' W 124°37'1115.5
2015-Feb-20 03:33N 49°45' W 124°53'14 4.6
2015-Feb-20 00:27N 49°50' W 124°32'1314.8
2015-Feb-19 23:33N 49°46' W 124°51'13 3.4
2015-Feb-19 19:33N 49°50' W 124°32'1110.8
2015-Feb-19 18:33N 49°46' W 124°48'8 2.4
2015-Feb-19 15:28N 49°49' W 124°37'2 0.2
2015-Feb-19 04:08N 49°50' W 124°33'814.0
2015-Feb-19 03:33N 49°47' W 124°45'9 1.1
2015-Feb-18 19:25N 49°50' W 124°32'1011.0
2015-Feb-18 18:31N 49°47' W 124°46'10 4.3
2015-Feb-18 16:14N 49°50' W 124°32'3 4.2
2015-Feb-18 15:32N 49°50' W 124°36'1 0.1
2015-Feb-18 04:11N 49°49' W 124°38'1 0.2
2015-Feb-18 00:24N 49°49' W 124°37'1212.5
2015-Feb-17 23:28N 49°45' W 124°54'15 3.8
2015-Feb-17 19:29N 49°50' W 124°32'5 1.6
2015-Feb-17 16:33N 49°48' W 124°39'2 1.6
2015-Feb-17 15:30N 49°49' W 124°36'1 0.1
2015-Feb-17 04:10N 49°49' W 124°38'914.8
2015-Feb-17 03:33N 49°46' W 124°51'  

Dump ship's entire track history